Time;durP1;ratioP1;P1;durP2;ratioP2;P2;SDS_P1;SDS_P2;PMS_P1;PMS_P2;Temp;Humidity;BMP_temperature;BMP_pressure;BME280_temperature;BME280_humidity;BME280_pressure;Samples;Min_cycle;Max_cycle;Signal;HPM_P1;HPM_P2
2022/02/23 00:00:08;;;;;;;14.15;3.92;;;;;;;3.89;57.47;100266.59;4468620;32;34953;-82
2022/02/23 00:02:38;;;;;;;6.90;3.00;;;;;;;4.03;57.24;100268.19;4456972;32;33003;-82
2022/02/23 00:05:06;;;;;;;9.15;3.37;;;;;;;3.96;57.69;100270.91;4469692;32;33355;-83
2022/02/23 00:07:34;;;;;;;5.35;3.00;;;;;;;4.04;57.84;100277.78;4468908;32;33022;-83
2022/02/23 00:10:03;;;;;;;5.28;3.30;;;;;;;3.75;58.90;100279.78;4462515;32;34106;-83
2022/02/23 00:12:31;;;;;;;11.18;4.30;;;;;;;4.09;58.26;100265.53;4456685;32;33476;-83
2022/02/23 00:14:59;;;;;;;9.00;4.03;;;;;;;4.05;58.07;100276.03;4455840;32;33967;-83
2022/02/23 00:17:27;;;;;;;9.30;3.92;;;;;;;4.39;57.15;100260.00;4462995;32;32758;-82
2022/02/23 00:19:56;;;;;;;11.80;3.03;;;;;;;4.32;57.35;100252.25;4456092;32;34905;-83
2022/02/23 00:22:24;;;;;;;8.13;3.35;;;;;;;4.31;57.33;100250.47;4462208;32;34506;-83
2022/02/23 00:24:52;;;;;;;6.97;3.40;;;;;;;4.33;57.63;100246.12;4468630;32;33010;-83
2022/02/23 00:27:20;;;;;;;12.23;4.62;;;;;;;4.35;57.66;100228.66;4469066;32;33891;-83
2022/02/23 00:29:47;;;;;;;9.52;2.92;;;;;;;4.31;57.93;100232.19;4449645;32;33287;-83
2022/02/23 00:32:16;;;;;;;9.18;3.00;;;;;;;4.42;57.71;100229.47;4470114;32;33848;-84
2022/02/23 00:34:47;;;;;;;10.70;4.20;;;;;;;4.48;57.78;100228.53;4461859;32;33183;-85
2022/02/23 00:37:15;;;;;;;14.13;4.82;;;;;;;4.61;57.40;100224.88;4468713;32;33554;-84
2022/02/23 00:39:43;;;;;;;10.50;3.47;;;;;;;4.67;57.34;100226.53;4469190;32;33786;-85
2022/02/23 00:42:11;;;;;;;9.82;3.55;;;;;;;4.88;56.72;100223.63;4455173;32;33717;-85
2022/02/23 00:44:39;;;;;;;10.13;3.55;;;;;;;4.78;57.04;100233.34;4468108;32;33359;-84
2022/02/23 00:47:07;;;;;;;8.25;3.65;;;;;;;4.74;57.29;100229.03;4455730;32;34213;-83
2022/02/23 00:49:34;;;;;;;8.05;3.33;;;;;;;4.84;57.23;100227.16;4455500;32;34724;-82
2022/02/23 00:52:06;;;;;;;5.93;2.78;;;;;;;5.23;55.46;100223.13;4469491;32;33434;-82
2022/02/23 00:54:34;;;;;;;6.37;2.12;;;;;;;4.98;56.33;100222.59;4470139;32;33787;-83
2022/02/23 00:57:03;;;;;;;7.32;3.10;;;;;;;4.59;57.95;100221.41;4455606;32;33420;-83
2022/02/23 00:59:31;;;;;;;11.43;2.97;;;;;;;4.71;58.20;100216.03;4468383;32;33701;-83
2022/02/23 01:01:59;;;;;;;7.40;2.55;;;;;;;4.57;58.48;100220.56;4454178;32;33521;-83
2022/02/23 01:04:27;;;;;;;7.75;3.25;;;;;;;4.73;57.93;100213.37;4461897;32;33191;-83
2022/02/23 01:06:55;;;;;;;10.65;3.00;;;;;;;4.63;58.22;100217.88;4455698;32;33648;-83
2022/02/23 01:09:23;;;;;;;11.10;3.62;;;;;;;4.65;58.19;100218.69;4470646;32;35982;-83
2022/02/23 01:11:51;;;;;;;9.45;3.53;;;;;;;4.68;58.18;100215.19;4456810;32;33688;-83
2022/02/23 01:14:18;;;;;;;6.15;2.97;;;;;;;4.67;58.13;100214.34;4455658;32;33663;-83
2022/02/23 01:16:46;;;;;;;9.48;3.72;;;;;;;4.67;58.02;100230.03;4468034;32;33483;-83
2022/02/23 01:19:14;;;;;;;6.70;2.78;;;;;;;4.74;57.99;100220.34;4449549;32;33471;-83
2022/02/23 01:21:41;;;;;;;9.27;3.30;;;;;;;4.79;57.45;100213.28;4468090;32;33166;-82
2022/02/23 01:24:12;;;;;;;7.50;2.30;;;;;;;4.92;57.18;100212.25;4475920;32;32706;-82
2022/02/23 01:26:39;;;;;;;8.63;2.70;;;;;;;4.76;58.01;100208.97;4447559;32;33278;-82
2022/02/23 01:29:07;;;;;;;7.65;3.30;;;;;;;5.03;57.22;100214.69;4467982;32;33889;-82
2022/02/23 01:31:35;;;;;;;13.70;2.80;;;;;;;5.24;56.34;100222.25;4450170;32;34356;-82
2022/02/23 01:34:03;;;;;;;9.02;3.03;;;;;;;5.30;55.52;100222.12;4470040;32;32984;-82
2022/02/23 01:36:31;;;;;;;6.05;2.78;;;;;;;5.27;55.55;100227.44;4469863;32;34289;-82
2022/02/23 01:38:58;;;;;;;9.52;2.83;;;;;;;5.08;55.85;100215.50;4457939;32;33678;-82
2022/02/23 01:41:27;;;;;;;6.50;2.62;;;;;;;4.98;56.36;100213.91;4456904;32;33750;-82
2022/02/23 01:43:55;;;;;;;12.80;2.80;;;;;;;5.00;56.38;100209.53;4464669;32;33629;-82
2022/02/23 01:46:23;;;;;;;9.10;3.33;;;;;;;5.06;56.21;100207.66;4470651;32;34958;-82
2022/02/23 01:48:50;;;;;;;6.25;2.72;;;;;;;5.06;56.15;100212.91;4464132;32;34430;-83
2022/02/23 01:51:18;;;;;;;9.88;2.85;;;;;;;5.08;56.13;100220.72;4469632;32;33759;-82
2022/02/23 01:53:46;;;;;;;5.97;2.45;;;;;;;5.02;56.27;100215.59;4456778;32;33060;-83
2022/02/23 01:56:14;;;;;;;7.82;2.30;;;;;;;4.90;56.68;100218.41;4453552;32;33282;-83
2022/02/23 01:58:41;;;;;;;8.90;2.33;;;;;;;5.12;56.01;100220.66;4466116;32;33671;-83
2022/02/23 02:01:13;;;;;;;7.50;2.47;;;;;;;5.06;56.21;100215.53;4451629;32;32972;-83
2022/02/23 02:03:40;;;;;;;7.55;2.80;;;;;;;4.84;57.02;100214.09;4459831;32;34159;-83
2022/02/23 02:06:09;;;;;;;7.68;2.75;;;;;;;4.86;57.23;100221.03;4446898;32;33881;-82
2022/02/23 02:08:36;;;;;;;8.25;2.08;;;;;;;5.31;55.34;100218.62;4435594;32;33884;-82
2022/02/23 02:11:06;;;;;;;16.35;3.35;;;;;;;5.26;55.08;100215.22;4447958;32;34153;-83
2022/02/23 02:13:33;;;;;;;5.80;2.55;;;;;;;5.00;56.04;100218.25;4467058;32;33033;-81
2022/02/23 02:16:01;;;;;;;5.50;2.25;;;;;;;4.86;57.13;100223.66;4463646;32;34486;-82
2022/02/23 02:18:29;;;;;;;5.78;2.28;;;;;;;5.16;56.54;100226.72;4459546;32;33565;-82
2022/02/23 02:20:57;;;;;;;8.00;2.60;;;;;;;5.02;56.77;100224.31;4451233;32;32674;-82
2022/02/23 02:23:24;;;;;;;6.30;2.40;;;;;;;4.83;58.15;100226.31;4460565;32;33079;-81
2022/02/23 02:25:52;;;;;;;9.23;2.62;;;;;;;4.98;58.08;100234.84;4461308;32;33574;-82
2022/02/23 02:28:20;;;;;;;10.73;2.78;;;;;;;5.25;57.13;100241.44;4452986;32;34724;-83
2022/02/23 02:30:47;;;;;;;6.87;2.70;;;;;;;5.49;56.62;100238.44;4459419;32;33394;-83
2022/02/23 02:33:18;;;;;;;8.38;2.50;;;;;;;5.59;56.27;100233.91;4461578;32;33715;-82
2022/02/23 02:35:45;;;;;;;6.18;2.78;;;;;;;5.55;55.80;100237.47;4452003;32;33879;-83
2022/02/23 02:38:13;;;;;;;5.25;2.05;;;;;;;5.20;56.81;100246.75;4459815;32;32898;-82
2022/02/23 02:40:41;;;;;;;8.60;2.12;;;;;;;5.01;57.70;100242.66;4460507;32;33455;-82
2022/02/23 02:43:10;;;;;;;7.78;2.12;;;;;;;5.31;56.77;100243.94;4459807;32;32687;-82
2022/02/23 02:45:37;;;;;;;9.95;3.00;;;;;;;5.12;57.40;100251.22;4449410;32;34014;-82
2022/02/23 02:48:06;;;;;;;4.72;2.42;;;;;;;4.98;58.00;100245.31;4446891;32;34819;-82
2022/02/23 02:50:33;;;;;;;8.27;2.28;;;;;;;5.36;57.33;100235.16;4448728;32;33195;-82
2022/02/23 02:53:02;;;;;;;5.00;2.42;;;;;;;5.38;56.70;100241.22;4448049;32;33279;-82
2022/02/23 02:55:30;;;;;;;8.55;2.17;;;;;;;5.24;57.57;100235.34;4463944;31;34586;-83
2022/02/23 02:57:57;;;;;;;9.32;2.72;;;;;;;5.34;57.75;100244.78;4471425;32;34750;-82
2022/02/23 03:00:25;;;;;;;5.07;2.42;;;;;;;5.55;57.24;100233.09;4448161;32;33219;-83
2022/02/23 03:02:53;;;;;;;9.38;2.60;;;;;;;5.75;56.12;100230.16;4477347;32;34129;-83
2022/02/23 03:05:21;;;;;;;5.20;2.15;;;;;;;5.61;56.68;100232.16;4470829;32;33494;-83
2022/02/23 03:07:48;;;;;;;11.75;3.08;;;;;;;5.73;56.91;100231.06;4470969;32;33688;-83
2022/02/23 03:10:16;;;;;;;12.82;2.50;;;;;;;5.63;56.77;100220.72;4452209;32;32839;-83
2022/02/23 03:12:44;;;;;;;7.70;2.12;;;;;;;5.90;55.92;100218.53;4457095;32;33601;-83
2022/02/23 03:15:11;;;;;;;12.15;2.05;;;;;;;5.99;55.62;100218.41;4472981;32;33328;-83
2022/02/23 03:17:39;;;;;;;7.22;2.28;;;;;;;5.78;56.27;100203.88;4457781;32;33156;-84
2022/02/23 03:20:08;;;;;;;5.15;2.30;;;;;;;5.63;57.51;100212.00;4458222;32;33546;-83
2022/02/23 03:22:36;;;;;;;15.20;2.80;;;;;;;5.59;57.59;100218.19;4457694;32;32953;-84
2022/02/23 03:25:04;;;;;;;10.35;2.85;;;;;;;5.48;58.37;100221.00;4470622;32;35609;-83
2022/02/23 03:27:32;;;;;;;5.22;1.85;;;;;;;5.68;57.84;100214.56;4470076;32;34240;-83
2022/02/23 03:30:00;;;;;;;6.80;2.15;;;;;;;5.58;57.86;100227.81;4466446;32;33863;-83
2022/02/23 03:32:29;;;;;;;11.90;2.20;;;;;;;5.74;57.35;100222.31;4465751;32;32283;-82
2022/02/23 03:34:56;;;;;;;6.10;2.08;;;;;;;5.65;57.55;100233.81;4458276;32;34327;-83
2022/02/23 03:37:24;;;;;;;11.60;2.10;;;;;;;5.62;57.50;100228.62;4464284;31;33339;-83
2022/02/23 03:39:52;;;;;;;4.18;2.12;;;;;;;5.69;57.21;100225.00;4470902;32;33746;-83
2022/02/23 03:42:19;;;;;;;6.62;2.62;;;;;;;5.52;57.39;100221.81;4464122;32;32455;-83
2022/02/23 03:44:47;;;;;;;8.48;2.92;;;;;;;5.61;57.30;100219.03;4470749;32;33906;-83
2022/02/23 03:47:15;;;;;;;10.57;2.33;;;;;;;5.74;56.52;100217.91;4458482;32;33994;-83
2022/02/23 03:49:42;;;;;;;6.95;2.03;;;;;;;5.94;55.29;100214.16;4484863;32;34536;-83
2022/02/23 03:52:10;;;;;;;6.95;1.83;;;;;;;5.93;55.61;100215.00;4471246;31;32710;-84
2022/02/23 03:54:39;;;;;;;5.78;2.20;;;;;;;6.13;54.80;100211.16;4458207;32;33902;-83
2022/02/23 03:57:07;;;;;;;10.40;2.47;;;;;;;5.93;55.66;100207.16;4457588;32;33853;-83
2022/02/23 03:59:35;;;;;;;5.35;2.20;;;;;;;5.95;55.89;100216.72;4472254;32;33164;-83
2022/02/23 04:02:05;;;;;;;5.80;2.25;;;;;;;6.12;55.54;100222.53;4457326;32;34746;-84
2022/02/23 04:04:33;;;;;;;6.65;2.10;;;;;;;6.06;55.95;100220.00;4469697;32;33973;-83
2022/02/23 04:07:01;;;;;;;5.97;2.45;;;;;;;6.10;56.17;100229.53;4462600;32;33109;-83
2022/02/23 04:09:28;;;;;;;8.63;2.80;;;;;;;6.13;56.20;100231.25;4483684;32;34507;-83
2022/02/23 04:11:56;;;;;;;5.40;2.42;;;;;;;6.23;56.01;100232.81;4471506;32;32821;-83
2022/02/23 04:14:24;;;;;;;8.18;2.20;;;;;;;6.22;55.80;100230.19;4465684;32;33226;-83
2022/02/23 04:16:51;;;;;;;7.35;2.53;;;;;;;6.25;56.14;100223.16;4471261;32;34777;-83
2022/02/23 04:19:19;;;;;;;5.70;2.12;;;;;;;6.07;56.85;100219.09;4457320;32;32442;-83
2022/02/23 04:21:46;;;;;;;6.15;2.22;;;;;;;6.08;57.40;100213.00;4463524;32;32306;-83
2022/02/23 04:24:14;;;;;;;6.30;2.30;;;;;;;6.10;57.64;100218.19;4471535;32;36186;-82
2022/02/23 04:26:42;;;;;;;4.93;2.30;;;;;;;6.10;57.99;100216.44;4457700;32;32744;-82
2022/02/23 04:29:09;;;;;;;5.30;2.28;;;;;;;6.09;58.17;100213.84;4472459;32;33678;-82
2022/02/23 04:31:37;;;;;;;8.38;3.08;;;;;;;6.24;57.94;100212.69;4460086;32;31945;-82
2022/02/23 04:34:05;;;;;;;4.97;2.20;;;;;;;6.30;58.05;100223.91;4458182;32;33074;-82
2022/02/23 04:36:32;;;;;;;8.80;2.28;;;;;;;6.50;58.12;100227.91;4470389;32;34750;-83
2022/02/23 04:39:00;;;;;;;7.70;1.98;;;;;;;6.30;59.27;100234.41;4470161;32;33447;-82
2022/02/23 04:41:27;;;;;;;5.87;1.70;;;;;;;6.27;59.83;100229.25;4456651;32;33805;-82
2022/02/23 04:43:55;;;;;;;4.18;1.37;;;;;;;6.46;59.66;100234.09;4456959;32;32756;-82
2022/02/23 04:46:23;;;;;;;4.62;1.80;;;;;;;6.51;59.92;100232.28;4462518;32;33925;-82
2022/02/23 04:48:54;;;;;;;4.43;1.05;;;;;;;6.56;59.79;100235.66;4470324;32;33420;-82
2022/02/23 04:51:23;;;;;;;7.12;1.27;;;;;;;6.57;60.07;100243.50;4457802;32;33156;-82
2022/02/23 04:53:54;;;;;;;10.80;1.85;;;;;;;6.54;60.67;100240.06;4461359;31;33427;-82
2022/02/23 04:56:27;;;;;;;2.72;1.12;;;;;;;6.64;60.70;100238.97;4463422;32;33683;-82
2022/02/23 04:58:56;;;;;;;4.47;2.05;;;;;;;6.83;60.16;100231.59;4460555;32;32696;-82
2022/02/23 05:01:24;;;;;;;7.87;2.00;;;;;;;7.11;59.29;100239.72;4461263;32;32979;-83
2022/02/23 05:03:52;;;;;;;7.40;2.47;;;;;;;6.85;60.25;100243.78;4456911;32;32743;-83
2022/02/23 05:06:19;;;;;;;8.35;2.47;;;;;;;7.21;59.42;100240.37;4456939;31;34682;-83
2022/02/23 05:08:47;;;;;;;5.65;1.70;;;;;;;7.12;59.78;100236.19;4460832;31;34397;-83
2022/02/23 05:11:15;;;;;;;6.93;1.65;;;;;;;7.34;59.21;100247.94;4457653;32;31176;-83
2022/02/23 05:13:43;;;;;;;6.97;1.10;;;;;;;7.23;59.33;100254.34;4457809;32;33563;-83
2022/02/23 05:16:11;;;;;;;7.70;1.98;;;;;;;7.40;58.97;100260.91;4472627;31;34540;-83
2022/02/23 05:18:39;;;;;;;6.72;1.70;;;;;;;7.37;59.09;100268.03;4456648;32;33754;-83
2022/02/23 05:21:07;;;;;;;6.90;1.92;;;;;;;7.43;59.07;100271.37;4469127;32;32256;-83
2022/02/23 05:23:34;;;;;;;3.87;1.48;;;;;;;7.61;58.62;100277.09;4456439;32;33613;-82
2022/02/23 05:26:03;;;;;;;6.78;2.00;;;;;;;7.62;58.80;100284.06;4469811;32;33724;-82
2022/02/23 05:28:34;;;;;;;6.65;1.62;;;;;;;7.66;58.79;100291.00;4483338;32;33499;-83
2022/02/23 05:31:01;;;;;;;5.65;1.52;;;;;;;7.45;59.48;100297.59;4472954;32;33705;-82
2022/02/23 05:33:29;;;;;;;4.55;1.75;;;;;;;7.41;59.80;100302.09;4457769;32;33415;-83
2022/02/23 05:35:57;;;;;;;7.25;1.65;;;;;;;7.11;61.20;100303.59;4484375;31;34296;-82
2022/02/23 05:38:24;;;;;;;4.45;1.52;;;;;;;7.50;60.13;100308.00;4483123;32;33846;-83
2022/02/23 05:40:53;;;;;;;3.78;1.80;;;;;;;7.43;60.67;100308.16;4461072;32;33894;-82
2022/02/23 05:43:20;;;;;;;4.95;1.60;;;;;;;7.49;60.77;100308.91;4470558;32;32726;-83
2022/02/23 05:45:48;;;;;;;4.45;1.02;;;;;;;7.46;61.09;100314.25;4470819;32;33803;-83
2022/02/23 05:48:16;;;;;;;3.47;1.10;;;;;;;7.49;61.02;100311.53;4463722;31;33136;-83
2022/02/23 05:50:45;;;;;;;9.20;2.00;;;;;;;7.39;61.42;100317.00;4468963;32;33265;-83
2022/02/23 05:53:16;;;;;;;6.35;1.92;;;;;;;7.59;60.90;100316.53;4462401;32;33935;-83
2022/02/23 05:55:44;;;;;;;3.62;1.87;;;;;;;7.53;61.50;100321.09;4464033;31;33224;-83
2022/02/23 05:58:12;;;;;;;6.25;1.85;;;;;;;7.48;61.66;100315.94;4462702;31;33458;-83
2022/02/23 06:00:40;;;;;;;4.78;1.33;;;;;;;7.49;61.66;100319.41;4462222;31;34407;-84
2022/02/23 06:03:09;;;;;;;2.85;1.62;;;;;;;7.70;61.33;100330.31;4458442;32;33130;-82
2022/02/23 06:05:36;;;;;;;5.95;1.73;;;;;;;7.84;60.82;100316.84;4449773;32;34377;-83
2022/02/23 06:08:04;;;;;;;4.72;2.25;;;;;;;7.73;61.36;100320.62;4462875;32;33964;-83
2022/02/23 06:10:32;;;;;;;5.50;1.95;;;;;;;7.67;61.41;100325.13;4469224;32;32573;-83
2022/02/23 06:13:02;;;;;;;5.32;1.77;;;;;;;7.68;61.59;100325.97;4469629;32;34659;-84
2022/02/23 06:15:30;;;;;;;3.40;2.10;;;;;;;7.64;61.88;100332.19;4457108;31;34230;-84
2022/02/23 06:17:58;;;;;;;2.70;1.75;;;;;;;7.51;62.38;100333.41;4484412;31;33115;-84
2022/02/23 06:20:28;;;;;;;16.98;2.28;;;;;;;7.36;63.25;100330.22;4460361;32;34032;-84
2022/02/23 06:22:56;;;;;;;4.93;1.85;;;;;;;7.31;63.53;100342.59;4472484;31;33711;-83
2022/02/23 06:25:24;;;;;;;4.30;1.75;;;;;;;7.39;63.13;100335.37;4459380;31;33595;-83
2022/02/23 06:27:58;;;;;;;7.90;1.98;;;;;;;7.48;63.02;100343.97;4471411;32;34485;-84
2022/02/23 06:30:26;;;;;;;5.53;2.00;;;;;;;7.63;62.64;100343.62;4471905;32;32079;-83
2022/02/23 06:32:54;;;;;;;6.05;2.33;;;;;;;7.87;61.84;100343.03;4471416;32;34200;-86
2022/02/23 06:35:24;;;;;;;3.28;1.98;;;;;;;7.77;62.04;100349.41;4459939;32;34538;-87
2022/02/23 06:37:52;;;;;;;7.97;2.33;;;;;;;7.72;62.44;100359.19;4471592;31;33706;-86
2022/02/23 06:40:22;;;;;;;5.40;2.53;;;;;;;7.51;63.08;100360.53;4471718;32;34311;-86
2022/02/23 06:42:50;;;;;;;10.00;2.87;;;;;;;7.57;63.02;100360.41;4471280;32;34994;-86
2022/02/23 06:45:18;;;;;;;7.57;3.28;;;;;;;7.51;63.06;100365.81;4464953;31;34459;-86
2022/02/23 06:47:46;;;;;;;5.50;2.70;;;;;;;7.57;62.98;100367.41;4459282;32;33684;-86
2022/02/23 06:50:14;;;;;;;10.52;3.47;;;;;;;7.82;62.27;100367.72;4470874;31;34154;-86
2022/02/23 06:52:42;;;;;;;16.27;5.28;;;;;;;7.55;63.21;100359.59;4458598;32;34007;-86
2022/02/23 06:55:11;;;;;;;39.72;11.40;;;;;;;7.50;63.40;100345.69;4462036;32;34742;-86
2022/02/23 06:57:40;;;;;;;19.65;5.87;;;;;;;7.12;64.05;100346.47;4458238;32;33140;-86
2022/02/23 07:00:09;;;;;;;12.30;3.58;;;;;;;7.38;63.28;100349.44;4471041;32;34403;-86
2022/02/23 07:02:37;;;;;;;14.00;4.37;;;;;;;7.23;63.29;100352.41;4466066;32;33320;-86
2022/02/23 07:05:06;;;;;;;12.10;3.92;;;;;;;7.78;61.60;100358.16;4462024;32;33617;-86
2022/02/23 07:07:35;;;;;;;13.05;3.80;;;;;;;7.72;61.88;100367.06;4463450;32;33778;-86
2022/02/23 07:10:08;;;;;;;8.23;3.20;;;;;;;7.63;62.35;100362.03;4463969;32;33114;-86
2022/02/23 07:12:36;;;;;;;13.48;3.90;;;;;;;7.86;61.51;100366.75;4459097;32;34006;-86
2022/02/23 07:15:04;;;;;;;12.18;3.03;;;;;;;7.87;61.23;100373.72;4459048;32;33114;-86
2022/02/23 07:17:32;;;;;;;7.53;3.25;;;;;;;7.95;61.04;100383.19;4464022;32;33022;-87
2022/02/23 07:20:00;;;;;;;6.70;3.90;;;;;;;7.50;62.74;100378.94;4470424;32;34111;-83
2022/02/23 07:22:28;;;;;;;7.30;3.58;;;;;;;7.04;64.52;100379.94;4460457;31;33225;-85
2022/02/23 07:24:56;;;;;;;11.15;4.55;;;;;;;6.93;64.37;100390.63;4462073;32;32651;-85
2022/02/23 07:27:26;;;;;;;8.00;3.92;;;;;;;7.33;63.04;100382.81;4464608;32;35026;-85
2022/02/23 07:29:54;;;;;;;6.18;3.28;;;;;;;7.57;62.53;100388.44;4464948;31;34102;-84
2022/02/23 07:32:26;;;;;;;14.95;4.47;;;;;;;7.52;63.05;100392.94;4465058;32;33517;-84
2022/02/23 07:34:55;;;;;;;13.45;4.90;;;;;;;6.90;64.67;100391.56;4473058;32;34606;-83
2022/02/23 07:37:22;;;;;;;9.50;4.43;;;;;;;6.98;65.33;100390.53;4470783;32;33675;-83
2022/02/23 07:40:02;;;;;;;12.25;4.35;;;;;;;7.33;64.05;100380.19;4472600;32;33899;-83
2022/02/23 07:42:50;;;;;;;10.60;3.45;;;;;;;7.62;63.29;100381.31;4458284;32;34488;-83
2022/02/23 07:45:29;;;;;;;14.85;4.60;;;;;;;7.50;63.81;100376.31;4467198;32;32502;-83
2022/02/23 07:47:58;;;;;;;11.98;4.35;;;;;;;7.63;63.16;100375.16;4463320;31;33671;-83
2022/02/23 07:50:28;;;;;;;9.13;4.47;;;;;;;7.86;62.75;100383.37;4464149;32;33658;-83
2022/02/23 07:52:55;;;;;;;14.00;4.68;;;;;;;7.95;62.37;100371.78;4474296;32;34335;-83
2022/02/23 07:55:26;;;;;;;14.23;4.97;;;;;;;7.89;62.68;100370.19;4470659;32;33224;-83
2022/02/23 07:57:54;;;;;;;19.35;4.35;;;;;;;7.69;62.81;100375.91;4462147;32;32614;-83
2022/02/23 08:00:22;;;;;;;10.02;3.37;;;;;;;7.64;62.86;100369.00;4471261;31;33407;-83
2022/02/23 08:02:51;;;;;;;10.75;2.67;;;;;;;7.84;62.37;100374.69;4465585;32;32740;-83
2022/02/23 08:05:18;;;;;;;7.47;3.78;;;;;;;7.61;62.84;100375.22;4470989;32;34705;-84
2022/02/23 08:07:47;;;;;;;10.85;4.03;;;;;;;8.06;61.88;100376.78;4460762;32;32834;-83
2022/02/23 08:10:15;;;;;;;8.48;3.92;;;;;;;8.06;61.79;100388.16;4453372;32;32734;-83
2022/02/23 08:12:43;;;;;;;10.90;3.55;;;;;;;8.16;61.39;100381.78;4458208;32;34418;-83
2022/02/23 08:20:43;;;;;;;8.23;3.33;;;;;;;7.84;62.84;100398.34;4472371;32;34363;-83
2022/02/23 08:23:13;;;;;;;10.38;3.33;;;;;;;7.93;63.61;100395.50;4463988;32;32812;-83
2022/02/23 08:25:41;;;;;;;8.23;3.83;;;;;;;8.49;61.79;100396.81;4465840;32;34157;-83
2022/02/23 08:28:13;;;;;;;7.45;3.25;;;;;;;8.49;62.14;100399.44;4475972;31;33331;-84
2022/02/23 08:30:48;;;;;;;11.57;3.53;;;;;;;8.75;61.17;100404.91;4458688;32;31942;-83
2022/02/23 08:33:16;;;;;;;14.13;4.18;;;;;;;8.39;63.14;100412.81;4451413;32;32710;-82
2022/02/23 08:35:45;;;;;;;9.65;3.97;;;;;;;8.78;62.24;100422.38;4470238;32;34737;-82
2022/02/23 08:38:14;;;;;;;10.60;4.95;;;;;;;8.65;63.22;100421.84;4484339;32;34437;-84
2022/02/23 08:40:44;;;;;;;10.45;4.45;;;;;;;8.85;63.49;100419.53;4470158;32;33567;-84
2022/02/23 08:43:12;;;;;;;11.25;4.18;;;;;;;8.75;64.86;100419.84;4460966;32;33871;-84
2022/02/23 08:45:41;;;;;;;11.10;4.12;;;;;;;9.17;64.34;100430.97;4463095;32;34122;-85
2022/02/23 08:48:09;;;;;;;9.07;4.40;;;;;;;9.25;64.44;100428.97;4466127;31;32197;-85
2022/02/23 08:50:37;;;;;;;5.72;2.78;;;;;;;9.42;66.43;100417.97;4463543;31;34533;-85
2022/02/23 08:53:04;;;;;;;7.82;2.12;;;;;;;9.00;67.11;100420.03;4464903;32;33992;-86
2022/02/23 08:55:32;;;;;;;3.45;1.70;;;;;;;9.39;65.89;100420.69;4470749;32;34377;-85
2022/02/23 08:58:01;;;;;;;5.53;1.92;;;;;;;9.64;65.80;100419.06;4451250;32;33591;-85
2022/02/23 09:00:31;;;;;;;4.03;1.73;;;;;;;9.98;63.65;100418.03;4457141;32;32741;-85
2022/02/23 09:03:01;;;;;;;4.78;1.45;;;;;;;9.79;64.04;100430.91;4462962;32;32665;-85
2022/02/23 09:05:29;;;;;;;4.97;1.05;;;;;;;9.87;63.31;100433.31;4453896;32;32597;-85
2022/02/23 09:07:57;;;;;;;2.58;1.35;;;;;;;9.67;63.66;100428.62;4462433;32;34284;-85
2022/02/23 09:10:25;;;;;;;4.30;1.45;;;;;;;9.89;63.35;100435.00;4469120;32;32384;-85
2022/02/23 09:12:53;;;;;;;3.00;1.60;;;;;;;10.24;62.88;100438.31;4471103;32;34384;-85
2022/02/23 09:15:30;;;;;;;5.95;1.27;;;;;;;10.39;62.37;100435.19;4469638;32;35952;-86
2022/02/23 09:17:58;;;;;;;3.47;1.12;;;;;;;10.06;64.16;100445.00;4475523;32;33783;-85
2022/02/23 09:20:27;;;;;;;7.50;1.55;;;;;;;10.38;62.85;100445.81;4457117;31;32969;-86
2022/02/23 09:22:55;;;;;;;3.62;1.55;;;;;;;10.75;61.41;100440.16;4469448;32;33839;-85
2022/02/23 09:25:43;;;;;;;2.45;1.17;;;;;;;10.35;62.08;100444.16;4455604;32;32790;-85
2022/02/23 09:28:10;;;;;;;3.55;1.67;;;;;;;10.47;59.71;100441.09;4386138;32;32654;-85
2022/02/23 09:30:38;;;;;;;5.40;1.83;;;;;;;10.53;59.86;100445.28;4399646;32;33415;-85
2022/02/23 09:33:06;;;;;;;2.12;1.30;;;;;;;10.70;58.79;100447.37;4391162;32;33693;-85
2022/02/23 09:35:34;;;;;;;6.60;1.55;;;;;;;10.35;58.47;100449.44;4398468;32;33178;-85
2022/02/23 09:38:02;;;;;;;3.35;1.05;;;;;;;10.63;57.19;100451.13;4388037;32;32638;-85
2022/02/23 09:40:30;;;;;;;3.70;1.40;;;;;;;10.93;56.43;100455.38;4397666;32;33854;-85
2022/02/23 09:43:00;;;;;;;3.03;1.50;;;;;;;10.87;55.64;100455.59;4391100;32;32762;-85
2022/02/23 09:45:28;;;;;;;2.47;1.20;;;;;;;11.01;55.35;100463.91;4398786;32;33674;-85
2022/02/23 09:47:58;;;;;;;2.47;1.10;;;;;;;11.05;55.47;100464.66;4388341;32;34438;-85
2022/02/23 09:50:26;;;;;;;3.50;1.05;;;;;;;11.25;54.29;100456.91;4397621;32;33347;-85
2022/02/23 09:52:54;;;;;;;3.08;1.08;;;;;;;11.41;52.96;100465.13;4386603;32;32877;-85
2022/02/23 09:55:22;;;;;;;4.07;1.02;;;;;;;11.40;53.97;100463.41;4394170;32;32950;-85
2022/02/23 09:57:50;;;;;;;4.07;0.95;;;;;;;11.58;52.46;100479.50;4400353;32;33823;-85
2022/02/23 10:00:18;;;;;;;2.03;0.75;;;;;;;11.43;51.42;100479.12;4399409;32;32985;-85
2022/02/23 10:02:47;;;;;;;0.93;0.50;;;;;;;11.29;51.16;100486.72;4388441;32;33815;-86
2022/02/23 10:05:17;;;;;;;1.95;0.85;;;;;;;11.58;49.61;100476.84;4423520;31;33773;-86
2022/02/23 10:07:45;;;;;;;4.35;1.15;;;;;;;11.07;53.63;100491.91;4458633;32;33831;-85
2022/02/23 10:10:29;;;;;;;3.70;0.98;;;;;;;11.63;50.49;100491.66;4472283;32;33799;-85
2022/02/23 10:12:59;;;;;;;2.37;0.70;;;;;;;11.66;49.44;100491.53;4473081;32;33480;-85
2022/02/23 10:15:27;;;;;;;4.35;1.00;;;;;;;11.42;51.50;100510.94;4464473;32;33250;-86
2022/02/23 10:17:55;;;;;;;4.85;0.90;;;;;;;11.47;50.68;100507.19;4463867;32;32675;-85
2022/02/23 10:20:28;;;;;;;4.28;1.00;;;;;;;11.13;51.78;100504.03;4470477;32;32992;-85
2022/02/23 10:22:57;;;;;;;2.50;0.80;;;;;;;11.60;50.37;100504.13;4467736;31;32832;-85
2022/02/23 10:25:28;;;;;;;3.12;1.45;;;;;;;11.42;49.45;100517.09;4471239;32;34739;-85
2022/02/23 10:28:10;;;;;;;3.10;1.15;;;;;;;11.48;49.47;100518.63;4470764;31;32526;-86
2022/02/23 10:30:47;;;;;;;1.20;0.52;;;;;;;11.74;48.60;100513.28;4464061;32;32275;-85
2022/02/23 10:33:22;;;;;;;3.08;0.77;;;;;;;11.84;47.20;100508.53;4472866;32;32665;-85
2022/02/23 10:36:15;;;;;;;13.65;1.48;;;;;;;11.65;47.62;100518.91;4442954;31;34645;-85
2022/02/23 10:38:45;;;;;;;6.80;0.98;;;;;;;11.54;47.90;100537.81;4466511;31;33766;-85
2022/02/23 10:41:32;;;;;;;3.70;0.82;;;;;;;11.25;47.87;100540.59;4462069;32;32274;-85
2022/02/23 10:44:03;;;;;;;9.80;0.93;;;;;;;11.81;45.29;100540.34;4465657;32;34130;-85
2022/02/23 10:46:31;;;;;;;1.65;0.70;;;;;;;11.67;45.50;100547.94;4464603;32;33824;-85
2022/02/23 10:49:01;;;;;;;10.38;1.00;;;;;;;11.32;46.21;100534.19;4457456;32;34364;-85
2022/02/23 10:51:32;;;;;;;4.37;0.90;;;;;;;11.73;43.73;100539.81;4471164;32;33040;-85
2022/02/23 10:54:11;;;;;;;6.93;1.12;;;;;;;11.59;44.32;100555.31;4470481;32;33217;-85
2022/02/23 10:56:56;;;;;;;2.80;0.50;;;;;;;11.52;43.63;100547.56;4470743;32;34730;-85
2022/02/23 10:59:45;;;;;;;5.12;0.70;;;;;;;11.93;42.69;100558.47;4461480;32;32476;-85
2022/02/23 11:02:12;;;;;;;4.47;0.50;;;;;;;12.25;42.01;100545.81;4400421;32;32700;-85
2022/02/23 11:04:41;;;;;;;4.47;0.70;;;;;;;12.57;40.04;100548.03;4396940;32;33649;-85
2022/02/23 11:07:08;;;;;;;2.53;0.50;;;;;;;12.67;42.41;100552.97;4386314;32;34470;-85
2022/02/23 11:09:36;;;;;;;4.22;0.90;;;;;;;12.17;41.65;100554.03;4399679;32;31782;-85
2022/02/23 11:12:04;;;;;;;6.35;0.90;;;;;;;12.52;40.10;100547.34;4386168;32;35987;-85
2022/02/23 11:14:34;;;;;;;5.35;0.90;;;;;;;12.01;40.96;100558.16;4387463;32;32449;-85
2022/02/23 11:17:02;;;;;;;3.97;0.62;;;;;;;12.19;40.43;100556.63;4400977;32;33412;-85
2022/02/23 11:19:32;;;;;;;1.80;0.70;;;;;;;12.18;40.35;100561.06;4410304;32;35541;-85
2022/02/23 11:22:02;;;;;;;5.57;0.60;;;;;;;11.94;39.83;100549.59;4398464;32;33539;-85
2022/02/23 11:24:30;;;;;;;2.58;0.40;;;;;;;11.52;40.89;100550.22;4402727;32;34273;-85
2022/02/23 11:27:01;;;;;;;6.68;1.05;;;;;;;11.61;41.08;100553.47;4398089;32;33211;-85
2022/02/23 11:29:38;;;;;;;4.10;0.45;;;;;;;11.54;41.29;100548.41;4399809;32;33480;-85
2022/02/23 11:32:07;;;;;;;5.60;0.82;;;;;;;11.60;40.34;100557.03;4412162;32;33014;-85
2022/02/23 11:34:37;;;;;;;1.75;0.50;;;;;;;11.46;40.48;100558.38;4401616;32;33623;-85
2022/02/23 11:37:16;;;;;;;3.53;0.60;;;;;;;11.42;39.05;100550.59;4400017;32;32515;-84
2022/02/23 11:39:45;;;;;;;4.78;0.62;;;;;;;11.03;40.75;100565.13;4442144;32;33742;-85
2022/02/23 11:42:20;;;;;;;5.62;0.62;;;;;;;11.52;40.54;100559.94;4462402;32;32183;-85